createdAt,value
2022-10-30T00:00:58.389Z,14.90
2022-10-30T00:03:25.395Z,14.80
2022-10-30T00:05:52.785Z,14.70
2022-10-30T00:08:21.842Z,14.70
2022-10-30T00:10:50.407Z,14.60
2022-10-30T00:13:18.735Z,14.60
2022-10-30T00:15:53.800Z,14.60
2022-10-30T00:18:21.472Z,14.50
2022-10-30T00:20:48.991Z,14.50
2022-10-30T00:23:16.405Z,14.40
2022-10-30T00:25:43.333Z,14.40
2022-10-30T00:28:10.398Z,14.30
2022-10-30T00:30:37.920Z,14.20
2022-10-30T00:33:05.193Z,14.20
2022-10-30T00:35:32.405Z,14.10
2022-10-30T00:38:01.596Z,14.10
2022-10-30T00:40:29.218Z,14.00
2022-10-30T00:42:56.457Z,14.00
2022-10-30T00:45:23.404Z,14.00
2022-10-30T00:47:59.523Z,14.00
2022-10-30T00:50:32.137Z,13.90
2022-10-30T00:53:13.753Z,13.90
2022-10-30T00:55:48.444Z,13.90
2022-10-30T00:58:20.303Z,13.90
2022-10-30T01:00:52.497Z,13.90
2022-10-30T01:03:22.039Z,13.90
2022-10-30T01:05:55.652Z,13.90
2022-10-30T01:08:22.784Z,14.00
2022-10-30T01:10:50.420Z,13.90
2022-10-30T01:13:19.347Z,13.90
2022-10-30T01:16:29.363Z,13.90
2022-10-30T01:19:29.019Z,13.90
2022-10-30T01:22:23.012Z,13.90
2022-10-30T01:25:20.493Z,13.80
2022-10-30T01:27:59.233Z,13.80
2022-10-30T01:30:56.262Z,13.80
2022-10-30T01:33:49.650Z,13.80
2022-10-30T01:36:42.629Z,13.70
2022-10-30T01:39:23.676Z,13.70
2022-10-30T01:41:50.896Z,13.60
2022-10-30T01:44:33.454Z,13.60
2022-10-30T01:47:24.401Z,13.60
2022-10-30T01:50:23.488Z,13.60
2022-10-30T01:53:04.933Z,13.50
2022-10-30T01:55:52.873Z,13.50
2022-10-30T01:58:28.937Z,13.40
2022-10-30T02:00:59.098Z,13.40
2022-10-30T02:03:27.341Z,13.40
2022-10-30T02:05:54.784Z,13.30
2022-10-30T02:08:22.867Z,13.20
2022-10-30T02:10:52.754Z,13.20
2022-10-30T02:13:20.823Z,13.20
2022-10-30T02:15:48.634Z,13.10
2022-10-30T02:18:15.912Z,13.00
2022-10-30T02:20:42.932Z,13.00
2022-10-30T02:23:16.156Z,12.90
2022-10-30T02:25:43.230Z,12.90
2022-10-30T02:28:10.171Z,12.90
2022-10-30T02:30:37.197Z,12.90
2022-10-30T02:33:04.286Z,12.90
2022-10-30T02:35:31.667Z,12.80
2022-10-30T02:37:58.923Z,12.80
2022-10-30T02:40:26.059Z,12.80
2022-10-30T02:42:54.474Z,12.80
2022-10-30T02:45:21.606Z,12.80
2022-10-30T02:47:49.099Z,12.80
2022-10-30T02:50:16.429Z,12.90
2022-10-30T02:52:43.334Z,13.10
2022-10-30T02:55:10.316Z,13.20
2022-10-30T02:57:37.254Z,13.30
2022-10-30T03:00:05.382Z,13.40
2022-10-30T03:02:32.428Z,13.50
2022-10-30T03:04:59.352Z,13.50
2022-10-30T03:07:26.279Z,13.50
2022-10-30T03:09:54.487Z,13.50
2022-10-30T03:12:22.654Z,13.40
2022-10-30T03:14:49.598Z,13.30
2022-10-30T03:17:16.565Z,13.10
2022-10-30T03:19:43.464Z,13.00
2022-10-30T03:22:10.545Z,12.90
2022-10-30T03:24:38.279Z,12.80
2022-10-30T03:27:05.245Z,12.70
2022-10-30T03:29:32.132Z,12.60
2022-10-30T03:31:59.025Z,12.60
2022-10-30T03:34:27.409Z,12.50
2022-10-30T03:36:54.374Z,12.50
2022-10-30T03:39:21.400Z,12.50
2022-10-30T03:41:48.279Z,12.50
2022-10-30T03:44:15.244Z,12.50
2022-10-30T03:46:42.180Z,12.60
2022-10-30T03:49:09.104Z,12.60
2022-10-30T03:51:36.050Z,12.70
2022-10-30T03:54:02.986Z,12.70
2022-10-30T03:56:29.898Z,12.70
2022-10-30T03:58:56.782Z,12.70
2022-10-30T04:01:23.838Z,12.70
2022-10-30T04:03:51.051Z,12.80
2022-10-30T04:06:17.922Z,12.80
2022-10-30T04:08:44.837Z,12.80
2022-10-30T04:11:11.816Z,12.70
2022-10-30T04:13:38.876Z,12.60
2022-10-30T04:16:06.833Z,12.50
2022-10-30T04:18:33.979Z,12.40
2022-10-30T04:21:00.886Z,12.20
2022-10-30T04:23:27.937Z,12.10
2022-10-30T04:25:55.014Z,12.20
2022-10-30T04:28:21.957Z,12.10
2022-10-30T04:30:49.188Z,12.10
2022-10-30T04:33:16.164Z,12.10
2022-10-30T04:35:43.635Z,12.10
2022-10-30T04:38:15.247Z,12.10
2022-10-30T04:40:44.186Z,12.10
2022-10-30T04:43:12.335Z,12.10
2022-10-30T04:45:41.425Z,12.00
2022-10-30T04:48:14.749Z,12.00
2022-10-30T04:50:42.294Z,11.90
2022-10-30T04:53:21.082Z,11.80
2022-10-30T04:55:48.019Z,11.80
2022-10-30T04:58:15.278Z,11.70
2022-10-30T05:00:42.221Z,11.70
2022-10-30T05:03:20.170Z,11.70
2022-10-30T05:05:49.220Z,11.70
2022-10-30T05:08:16.854Z,11.80
2022-10-30T05:10:43.863Z,11.80
2022-10-30T05:13:13.753Z,11.90
2022-10-30T05:15:40.772Z,11.90
2022-10-30T05:18:07.813Z,12.00
2022-10-30T05:20:34.781Z,12.00
2022-10-30T05:23:01.790Z,12.00
2022-10-30T05:25:29.154Z,12.10
2022-10-30T05:28:05.007Z,12.10
2022-10-30T05:30:34.338Z,12.10
2022-10-30T05:33:05.383Z,12.10
2022-10-30T05:35:33.920Z,12.10
2022-10-30T05:38:03.208Z,12.10
2022-10-30T05:40:30.138Z,12.00
2022-10-30T05:42:57.352Z,12.00
2022-10-30T05:45:24.575Z,12.00
2022-10-30T05:48:13.372Z,11.90
2022-10-30T05:50:40.262Z,11.80
2022-10-30T05:53:10.091Z,11.80
2022-10-30T05:55:37.017Z,11.80
2022-10-30T05:58:06.663Z,11.80
2022-10-30T06:00:36.291Z,11.80
2022-10-30T06:03:06.937Z,11.80
2022-10-30T06:05:36.847Z,11.80
2022-10-30T06:08:06.218Z,11.80
2022-10-30T06:10:33.952Z,11.80
2022-10-30T06:13:04.941Z,11.80
2022-10-30T06:15:32.815Z,11.80
2022-10-30T06:18:00.831Z,11.80
2022-10-30T06:20:30.432Z,11.90
2022-10-30T06:23:05.884Z,11.90
2022-10-30T06:25:41.256Z,11.90
2022-10-30T06:28:13.579Z,12.00
2022-10-30T06:30:40.674Z,12.00
2022-10-30T06:33:08.049Z,11.90
2022-10-30T06:35:35.024Z,11.90
2022-10-30T06:38:02.043Z,11.90
2022-10-30T06:40:30.234Z,11.90
2022-10-30T06:42:58.189Z,11.90
2022-10-30T06:45:25.844Z,11.80
2022-10-30T06:47:52.846Z,11.80
2022-10-30T06:50:22.052Z,11.80
2022-10-30T06:52:49.500Z,11.90
2022-10-30T06:55:17.058Z,11.90
2022-10-30T06:57:44.408Z,11.90
2022-10-30T07:00:12.916Z,11.90
2022-10-30T07:02:39.886Z,12.00
2022-10-30T07:05:07.156Z,12.00
2022-10-30T07:07:34.107Z,12.10
2022-10-30T07:10:01.045Z,12.10
2022-10-30T07:12:27.987Z,12.20
2022-10-30T07:14:54.932Z,12.30
2022-10-30T07:17:21.808Z,12.40
2022-10-30T07:19:48.742Z,12.40
2022-10-30T07:22:15.681Z,12.50
2022-10-30T07:24:42.563Z,12.50
2022-10-30T07:27:09.477Z,12.60
2022-10-30T07:29:36.419Z,12.60
2022-10-30T07:32:03.961Z,12.60
2022-10-30T07:34:31.796Z,12.70
2022-10-30T07:36:58.682Z,12.70
2022-10-30T07:39:25.733Z,12.90
2022-10-30T07:41:52.640Z,12.90
2022-10-30T07:44:19.535Z,13.00
2022-10-30T07:46:46.438Z,13.10
2022-10-30T07:49:13.322Z,13.20
2022-10-30T07:51:40.239Z,13.20
2022-10-30T07:54:07.159Z,13.30
2022-10-30T07:56:34.099Z,13.40
2022-10-30T07:59:01.037Z,13.60
2022-10-30T08:01:28.035Z,13.70
2022-10-30T08:03:55.034Z,13.80
2022-10-30T08:06:24.748Z,14.00
2022-10-30T08:08:54.045Z,14.30
2022-10-30T08:11:20.985Z,14.50
2022-10-30T08:13:47.857Z,14.80
2022-10-30T08:16:14.954Z,15.20
2022-10-30T08:18:42.594Z,15.60
2022-10-30T08:21:10.389Z,16.40
2022-10-30T08:23:37.943Z,17.10
2022-10-30T08:26:05.491Z,17.90
2022-10-30T08:28:33.379Z,18.60
2022-10-30T08:31:01.580Z,18.90
2022-10-30T08:33:29.080Z,19.30
2022-10-30T08:35:58.629Z,19.60
2022-10-30T08:38:27.833Z,19.90
2022-10-30T08:40:55.336Z,19.90
2022-10-30T08:43:23.590Z,19.70
2022-10-30T08:45:50.625Z,19.70
2022-10-30T08:48:17.654Z,19.60
2022-10-30T08:50:45.303Z,19.00
2022-10-30T08:53:15.195Z,18.70
2022-10-30T08:55:42.474Z,18.50
2022-10-30T08:58:09.928Z,18.50
2022-10-30T09:00:37.079Z,18.70
2022-10-30T09:03:04.380Z,19.00
2022-10-30T09:05:31.620Z,19.30
2022-10-30T09:08:01.325Z,19.50
2022-10-30T09:10:29.514Z,19.60
2022-10-30T09:12:58.584Z,19.70
2022-10-30T09:15:26.868Z,19.80
2022-10-30T09:18:03.130Z,19.90
2022-10-30T09:20:31.457Z,20.00
2022-10-30T09:22:59.038Z,20.10
2022-10-30T09:25:26.538Z,20.00
2022-10-30T09:27:53.461Z,19.90
2022-10-30T09:30:21.008Z,19.70
2022-10-30T09:32:59.010Z,19.80
2022-10-30T09:35:26.810Z,19.90
2022-10-30T09:37:53.917Z,19.80
2022-10-30T09:40:44.112Z,19.60
2022-10-30T09:43:41.459Z,19.40
2022-10-30T09:46:53.598Z,19.30
2022-10-30T09:49:55.914Z,19.20
2022-10-30T09:52:51.191Z,19.20
2022-10-30T09:55:26.492Z,19.20
2022-10-30T09:58:28.308Z,19.20
2022-10-30T10:01:17.838Z,19.10
2022-10-30T10:04:23.951Z,19.10
2022-10-30T10:07:07.365Z,19.10
2022-10-30T10:09:37.937Z,19.10
2022-10-30T10:13:00.201Z,19.10
2022-10-30T10:15:33.385Z,19.30
2022-10-30T10:18:02.700Z,19.30
2022-10-30T10:20:43.784Z,19.30
2022-10-30T10:23:30.513Z,19.20
2022-10-30T10:26:09.115Z,19.20
2022-10-30T10:29:09.852Z,19.30
2022-10-30T10:31:59.500Z,19.30
2022-10-30T10:35:19.187Z,19.40
2022-10-30T10:37:46.023Z,19.30
2022-10-30T10:41:04.428Z,19.40
2022-10-30T10:44:07.161Z,19.50
2022-10-30T10:47:06.899Z,19.40
2022-10-30T10:50:02.573Z,19.50
2022-10-30T10:52:42.777Z,19.50
2022-10-30T10:55:29.384Z,19.40
2022-10-30T10:58:24.922Z,19.30
2022-10-30T11:00:52.991Z,19.20
2022-10-30T11:03:31.783Z,19.10
2022-10-30T11:06:22.863Z,19.20
2022-10-30T11:08:52.733Z,19.30
2022-10-30T11:11:19.698Z,19.20
2022-10-30T11:13:46.713Z,19.20
2022-10-30T11:16:41.009Z,19.30
2022-10-30T11:19:09.457Z,19.20
2022-10-30T11:21:42.644Z,19.20
2022-10-30T11:24:36.309Z,19.10
2022-10-30T11:27:28.680Z,19.20
2022-10-30T11:30:05.651Z,19.20
2022-10-30T11:32:34.979Z,19.20
2022-10-30T11:35:08.203Z,19.30
2022-10-30T11:37:38.718Z,19.30
2022-10-30T11:40:11.921Z,19.30
2022-10-30T11:42:48.740Z,19.40
2022-10-30T11:45:32.345Z,19.60
2022-10-30T11:48:03.994Z,19.80
2022-10-30T11:50:33.083Z,19.80
2022-10-30T11:53:19.980Z,19.80
2022-10-30T11:55:48.402Z,19.70
2022-10-30T11:58:38.674Z,19.80
2022-10-30T12:01:30.623Z,19.90
2022-10-30T12:04:16.121Z,19.80
2022-10-30T12:06:43.263Z,19.80
2022-10-30T12:09:21.736Z,19.80
2022-10-30T12:11:49.753Z,19.90
2022-10-30T12:14:21.602Z,20.10
2022-10-30T12:16:55.014Z,20.20
2022-10-30T12:19:24.734Z,20.20
2022-10-30T12:21:54.385Z,20.20
2022-10-30T12:24:34.981Z,20.30
2022-10-30T12:27:12.209Z,20.40
2022-10-30T12:30:07.875Z,20.60
2022-10-30T12:32:49.711Z,20.70
2022-10-30T12:35:32.520Z,20.90
2022-10-30T12:38:03.086Z,21.00
2022-10-30T12:40:42.500Z,21.00
2022-10-30T12:43:27.511Z,21.10
2022-10-30T12:46:17.218Z,21.00
2022-10-30T12:49:04.719Z,21.00
2022-10-30T12:52:09.786Z,21.00
2022-10-30T12:54:48.239Z,20.90
2022-10-30T12:57:19.483Z,20.80
2022-10-30T13:00:13.736Z,20.80
2022-10-30T13:02:50.250Z,20.80
2022-10-30T13:05:47.288Z,20.80
2022-10-30T13:08:40.004Z,20.90
2022-10-30T13:11:33.220Z,20.80
2022-10-30T13:14:01.862Z,20.70
2022-10-30T13:16:32.037Z,20.50
2022-10-30T13:19:03.156Z,20.30
2022-10-30T13:24:23.782Z,20.10
2022-10-30T13:27:17.093Z,20.00
2022-10-30T13:30:01.577Z,20.00
2022-10-30T13:32:49.924Z,20.00
2022-10-30T13:35:47.396Z,20.00
2022-10-30T13:38:47.469Z,20.00
2022-10-30T13:42:03.401Z,19.90
2022-10-30T13:45:02.719Z,19.90
2022-10-30T13:47:42.882Z,19.90
2022-10-30T13:50:34.503Z,19.70
2022-10-30T13:53:05.947Z,19.50
2022-10-30T13:55:36.057Z,19.30
2022-10-30T13:58:25.757Z,19.20
2022-10-30T14:01:09.946Z,19.10
2022-10-30T14:04:01.393Z,19.00
2022-10-30T14:06:59.957Z,18.90
2022-10-30T14:09:52.210Z,18.80
2022-10-30T14:13:12.357Z,18.70
2022-10-30T14:15:46.779Z,18.60
2022-10-30T14:18:13.685Z,18.40
2022-10-30T14:20:47.371Z,18.30
2022-10-30T14:23:22.969Z,18.10
2022-10-30T14:26:12.424Z,17.90
2022-10-30T14:28:44.504Z,17.90
2022-10-30T14:31:20.828Z,17.90
2022-10-30T14:33:53.235Z,17.90
2022-10-30T14:36:26.804Z,17.80
2022-10-30T14:39:13.278Z,17.80
2022-10-30T14:42:08.030Z,17.90
2022-10-30T14:44:58.483Z,17.90
2022-10-30T14:47:38.647Z,17.90
2022-10-30T14:50:37.115Z,17.90
2022-10-30T14:53:47.700Z,17.80
2022-10-30T14:59:15.350Z,17.80
2022-10-30T15:02:09.395Z,17.80
2022-10-30T15:05:18.976Z,17.80
2022-10-30T15:07:54.264Z,17.70
2022-10-30T15:10:34.461Z,17.70
2022-10-30T15:13:21.546Z,17.80
2022-10-30T15:16:03.141Z,17.90
2022-10-30T15:18:34.061Z,17.90
2022-10-30T15:21:06.908Z,17.80
2022-10-30T15:23:36.979Z,17.80
2022-10-30T15:26:09.762Z,17.80
2022-10-30T15:28:39.036Z,17.70
2022-10-30T15:31:24.280Z,17.70
2022-10-30T15:33:54.312Z,17.60
2022-10-30T15:36:30.928Z,17.60
2022-10-30T15:39:19.776Z,17.50
2022-10-30T15:41:58.298Z,17.50
2022-10-30T15:44:29.218Z,17.40
2022-10-30T15:47:01.023Z,17.40
2022-10-30T15:49:35.229Z,17.30
2022-10-30T15:52:28.309Z,17.30
2022-10-30T15:55:08.659Z,17.20
2022-10-30T15:58:02.266Z,17.20
2022-10-30T16:00:37.909Z,17.10
2022-10-30T16:03:17.459Z,17.10
2022-10-30T16:05:44.377Z,17.00
2022-10-30T16:08:24.256Z,17.00
2022-10-30T16:10:55.247Z,17.00
2022-10-30T16:13:31.973Z,16.90
2022-10-30T16:16:00.939Z,16.90
2022-10-30T16:18:32.324Z,16.80
2022-10-30T16:21:07.504Z,16.80
2022-10-30T16:23:40.495Z,16.70
2022-10-30T16:26:10.049Z,16.70
2022-10-30T16:28:38.222Z,16.60
2022-10-30T16:31:15.317Z,16.60
2022-10-30T16:33:44.673Z,16.60
2022-10-30T16:36:17.500Z,16.50
2022-10-30T16:38:49.040Z,16.50
2022-10-30T16:41:16.415Z,16.50
2022-10-30T16:44:13.881Z,16.40
2022-10-30T16:47:05.013Z,16.40
2022-10-30T16:49:34.847Z,16.30
2022-10-30T16:52:13.651Z,16.30
2022-10-30T16:54:47.873Z,16.30
2022-10-30T16:57:40.623Z,16.20
2022-10-30T17:00:24.435Z,16.10
2022-10-30T17:02:56.752Z,16.10
2022-10-30T17:05:33.807Z,16.10
2022-10-30T17:08:42.447Z,16.00
2022-10-30T17:11:32.597Z,15.90
2022-10-30T17:14:02.541Z,15.90
2022-10-30T17:16:40.121Z,15.80
2022-10-30T17:19:31.751Z,15.70
2022-10-30T17:22:02.605Z,15.70
2022-10-30T17:24:34.178Z,15.60
2022-10-30T17:27:08.606Z,15.50
2022-10-30T17:29:38.454Z,15.40
2022-10-30T17:32:15.403Z,15.40
2022-10-30T17:34:42.334Z,15.30
2022-10-30T17:37:09.259Z,15.30
2022-10-30T17:39:36.196Z,15.30
2022-10-30T17:42:03.311Z,15.30
2022-10-30T17:44:34.574Z,15.30
2022-10-30T17:47:12.606Z,15.30
2022-10-30T17:49:39.728Z,15.20
2022-10-30T17:52:06.609Z,15.20
2022-10-30T17:54:33.799Z,15.20
2022-10-30T17:57:00.819Z,15.20
2022-10-30T17:59:27.900Z,15.20
2022-10-30T18:01:55.015Z,15.20
2022-10-30T18:04:22.216Z,15.20
2022-10-30T18:06:49.667Z,15.20
2022-10-30T18:09:16.708Z,15.20
2022-10-30T18:11:43.894Z,15.20
2022-10-30T18:14:12.417Z,15.20
2022-10-30T18:16:39.527Z,15.20
2022-10-30T18:19:11.069Z,15.20
2022-10-30T18:21:38.706Z,15.20
2022-10-30T18:24:15.686Z,15.10
2022-10-30T18:26:42.887Z,15.10
2022-10-30T18:29:11.264Z,15.00
2022-10-30T18:31:39.527Z,14.90
2022-10-30T18:34:18.345Z,14.80
2022-10-30T18:36:45.350Z,14.80
2022-10-30T18:39:13.123Z,14.70
2022-10-30T18:41:45.979Z,14.60
2022-10-30T18:44:17.428Z,14.60
2022-10-30T18:46:44.798Z,14.60
2022-10-30T18:49:12.137Z,14.50
2022-10-30T18:51:39.285Z,14.50
2022-10-30T18:54:16.596Z,14.50
2022-10-30T18:56:44.034Z,14.50
2022-10-30T18:59:11.131Z,14.50
2022-10-30T19:01:38.486Z,14.50
2022-10-30T19:04:10.457Z,14.50
2022-10-30T19:06:38.886Z,14.40
2022-10-30T19:09:06.258Z,14.40
2022-10-30T19:11:34.073Z,14.40
2022-10-30T19:14:01.135Z,14.30
2022-10-30T19:16:28.278Z,14.30
2022-10-30T19:18:55.217Z,14.30
2022-10-30T19:21:25.629Z,14.30
2022-10-30T19:23:55.057Z,14.30
2022-10-30T19:26:22.001Z,14.20
2022-10-30T19:28:48.926Z,14.20
2022-10-30T19:31:18.780Z,14.20
2022-10-30T19:33:51.334Z,14.20
2022-10-30T19:36:37.032Z,14.20
2022-10-30T19:39:10.738Z,14.10
2022-10-30T19:41:38.892Z,14.00
2022-10-30T19:44:06.277Z,14.00
2022-10-30T19:46:34.142Z,14.00
2022-10-30T19:49:08.993Z,14.00
2022-10-30T19:51:35.940Z,13.90
2022-10-30T19:54:02.925Z,13.90
2022-10-30T19:56:29.837Z,13.90
2022-10-30T19:58:56.736Z,13.90
2022-10-30T20:01:23.753Z,13.90
2022-10-30T20:03:50.838Z,13.80
2022-10-30T20:06:18.905Z,13.80
2022-10-30T20:08:45.872Z,13.80
2022-10-30T20:11:12.776Z,13.70
2022-10-30T20:13:39.714Z,13.70
2022-10-30T20:16:07.249Z,13.60
2022-10-30T20:18:35.957Z,13.60
2022-10-30T20:21:09.966Z,13.60
2022-10-30T20:23:37.485Z,13.70
2022-10-30T20:26:24.324Z,13.70
2022-10-30T20:28:53.111Z,13.70
2022-10-30T20:31:20.250Z,13.60
2022-10-30T20:33:47.240Z,13.60
2022-10-30T20:36:14.724Z,13.60
2022-10-30T20:38:41.683Z,13.50
2022-10-30T20:41:29.457Z,13.50
2022-10-30T20:43:56.437Z,13.40
2022-10-30T20:46:23.348Z,13.30
2022-10-30T20:48:50.252Z,13.20
2022-10-30T20:51:17.488Z,13.20
2022-10-30T20:53:44.588Z,13.10
2022-10-30T20:56:11.686Z,13.00
2022-10-30T20:58:38.978Z,13.00
2022-10-30T21:01:06.209Z,12.90
2022-10-30T21:03:33.413Z,12.90
2022-10-30T21:06:01.924Z,12.80
2022-10-30T21:08:33.706Z,12.80
2022-10-30T21:11:03.597Z,12.90
2022-10-30T21:13:30.918Z,12.90
2022-10-30T21:16:06.341Z,12.90
2022-10-30T21:18:33.290Z,12.80
2022-10-30T21:21:08.830Z,12.80
2022-10-30T21:23:35.755Z,12.80
2022-10-30T21:26:07.902Z,12.80
2022-10-30T21:28:35.981Z,12.80
2022-10-30T21:31:04.982Z,12.80
2022-10-30T21:33:36.584Z,12.70
2022-10-30T21:36:12.682Z,12.80
2022-10-30T21:38:42.155Z,12.80
2022-10-30T21:41:20.974Z,12.90
2022-10-30T21:43:57.496Z,12.90
2022-10-30T21:46:27.275Z,13.10
2022-10-30T21:48:55.190Z,13.10
2022-10-30T21:51:26.416Z,13.20
2022-10-30T21:53:55.486Z,13.20
2022-10-30T21:56:25.992Z,13.30
2022-10-30T21:58:55.549Z,13.40
2022-10-30T22:01:26.120Z,13.40
2022-10-30T22:03:53.141Z,13.40
2022-10-30T22:06:22.733Z,13.40
2022-10-30T22:08:53.417Z,13.40
2022-10-30T22:11:22.344Z,13.40
2022-10-30T22:13:58.335Z,13.30
2022-10-30T22:16:29.553Z,13.30
2022-10-30T22:18:57.351Z,13.30
2022-10-30T22:21:24.978Z,13.20
2022-10-30T22:23:52.023Z,13.20
2022-10-30T22:26:22.308Z,13.20
2022-10-30T22:28:53.969Z,13.20
2022-10-30T22:31:23.247Z,13.20
2022-10-30T22:33:50.180Z,13.20
2022-10-30T22:36:26.964Z,13.30
2022-10-30T22:39:07.569Z,13.30
2022-10-30T22:41:38.107Z,13.30
2022-10-30T22:44:08.552Z,13.40
2022-10-30T22:46:36.701Z,13.50
2022-10-30T22:49:04.472Z,13.60
2022-10-30T22:51:37.062Z,13.70
2022-10-30T22:54:07.856Z,13.80
2022-10-30T22:56:36.561Z,13.90
2022-10-30T22:59:07.647Z,13.90
2022-10-30T23:01:37.135Z,14.00
2022-10-30T23:04:05.810Z,14.00
2022-10-30T23:06:34.790Z,14.00
2022-10-30T23:09:06.606Z,14.00
2022-10-30T23:11:33.619Z,14.00
2022-10-30T23:14:00.676Z,14.00
2022-10-30T23:16:28.070Z,13.90
2022-10-30T23:18:58.723Z,13.90
2022-10-30T23:21:29.959Z,13.90
2022-10-30T23:23:57.505Z,13.90
2022-10-30T23:26:29.288Z,13.80
2022-10-30T23:28:57.685Z,13.70
2022-10-30T23:31:37.646Z,13.70
2022-10-30T23:34:09.260Z,13.70
2022-10-30T23:36:36.869Z,13.60
2022-10-30T23:39:09.390Z,13.50
2022-10-30T23:41:36.359Z,13.40
2022-10-30T23:44:06.775Z,13.30
2022-10-30T23:46:35.505Z,13.30
2022-10-30T23:49:03.769Z,13.10
2022-10-30T23:51:31.317Z,13.00
2022-10-30T23:53:58.436Z,12.90
2022-10-30T23:56:25.708Z,12.80
2022-10-30T23:58:53.003Z,12.70
